Time;durP1;ratioP1;P1;durP2;ratioP2;P2;SDS_P1;SDS_P2;PMS_P1;PMS_P2;Temp;Humidity;BMP_temperature;BMP_pressure;BME280_temperature;BME280_humidity;BME280_pressure;Samples;Min_cycle;Max_cycle;Signal;HPM_P1;HPM_P2
2023/06/07 09:03:18;;;;;;;;;;;;;;;;;;2021287;29;19924;-75
2023/06/07 09:24:52;;;;;;;;;;;;;;;;;;2057824;23;19935;-77
2023/06/07 09:26:13;;;;;;;;;;;;;;;;;;2011890;29;19912;-79
2023/06/07 09:45:25;;;;;;;;;;;;;;;;;;2293917;23;19934;-76
2023/06/07 14:51:51;;;;;;;;;;;;;;;;;;1302551;23;20440;-75
2023/06/07 14:53:12;;;;;;;;;;;;;;;;;;2023440;29;19927;-75
2023/06/07 14:54:32;;;;;;;;;;;;;;;;;;2021158;29;19934;-76
2023/06/07 14:55:53;;;;;;;;;;;;;;;;;;2025647;29;19938;-75
2023/06/07 14:57:14;;;;;;;;;;;;;;;;;;2027315;29;20323;-75
2023/06/07 14:58:35;;;;;;;;;;;;;;;;;;2026641;29;19912;-75
2023/06/07 14:59:55;;;;;;;;;;;;;;;;;;2023159;29;19911;-75
2023/06/07 15:01:17;;;;;;;;;;;;;;;;;;2031725;29;19910;-75
2023/06/07 15:02:38;;;;;;;;;;;;;;;;;;2031438;29;19911;-75
2023/06/07 15:03:58;;;;;;;;;;;;;;;;;;2027401;29;19915;-75
2023/06/07 15:05:20;;;;;;;;;;;;;;;;;;2023905;29;19911;-75
2023/06/07 15:06:41;;;;;;;;;;;;;;;;;;2019247;29;19908;-76
2023/06/07 15:08:03;;;;;;;;;;;;;;;;;;2024106;29;20287;-75
2023/06/07 15:09:24;;;;;;;;;;;;;;;;;;2026390;29;19918;-75
2023/06/07 15:10:45;;;;;;;;;;;;;;;;;;2017194;29;19915;-75
2023/06/07 15:12:06;;;;;;;;;;;;;;;;;;2023306;29;19915;-75
2023/06/07 15:13:27;;;;;;;;;;;;;;;;;;2023018;29;20300;-75
2023/06/07 15:14:47;;;;;;;;;;;;;;;;;;2022348;29;19927;-75
2023/06/07 15:16:08;;;;;;;;;;;;;;;;;;2022580;29;20058;-76
2023/06/07 15:17:29;;;;;;;;;;;;;;;;;;2023563;29;19912;-75
2023/06/07 15:18:49;;;;;;;;;;;;;;;;;;2023175;29;19919;-75
2023/06/07 15:20:10;;;;;;;;;;;;;;;;;;2019988;29;19944;-75
2023/06/07 15:21:34;;;;;;;;;;;;;;;;;;2015801;29;19916;-76
2023/06/07 15:22:55;;;;;;;;;;;;;;;;;;2013549;29;20021;-74
2023/06/07 15:24:16;;;;;;;;;;;;;;;;;;2020699;29;20355;-75
2023/06/07 15:25:36;;;;;;;;;;;;;;;;;;2018640;29;19915;-75
2023/06/07 15:26:57;;;;;;;;;;;;;;;;;;2018809;29;19970;-76
2023/06/07 15:28:18;;;;;;;;;;;;;;;;;;2020971;29;19919;-75
2023/06/07 15:29:38;;;;;;;;;;;;;;;;;;2019230;29;20272;-76
2023/06/07 15:30:59;;;;;;;;;;;;;;;;;;2015191;29;19991;-75
2023/06/07 15:32:25;;;;;;;;;;;;;;;;;;2020259;29;19945;-75
2023/06/07 15:33:45;;;;;;;;;;;;;;;;;;2019706;29;20490;-74
2023/06/07 15:35:06;;;;;;;;;;;;;;;;;;2023321;29;21992;-74
2023/06/07 15:36:27;;;;;;;;;;;;;;;;;;2020132;29;20352;-74
2023/06/07 15:37:48;;;;;;;;;;;;;;;;;;2026203;29;19912;-74
2023/06/07 15:39:08;;;;;;;;;;;;;;;;;;2024083;29;19979;-74
2023/06/07 15:40:29;;;;;;;;;;;;;;;;;;2023507;29;20299;-74
2023/06/07 15:41:53;;;;;;;;;;;;;;;;;;2023302;29;19911;-74
2023/06/07 15:43:14;;;;;;;;;;;;;;;;;;2021511;29;20292;-74
2023/06/07 15:44:34;;;;;;;;;;;;;;;;;;2019763;29;20001;-74
2023/06/07 15:45:56;;;;;;;;;;;;;;;;;;2019628;29;19920;-74
2023/06/07 15:47:18;;;;;;;;;;;;;;;;;;2016367;29;19919;-75
2023/06/07 15:48:39;;;;;;;;;;;;;;;;;;2020657;29;19974;-75
2023/06/07 15:50:00;;;;;;;;;;;;;;;;;;2012652;29;20309;-75
2023/06/07 15:51:21;;;;;;;;;;;;;;;;;;2022483;29;19911;-75
2023/06/07 15:52:41;;;;;;;;;;;;;;;;;;2024765;29;20300;-75
2023/06/07 15:54:02;;;;;;;;;;;;;;;;;;2023160;29;19919;-75
2023/06/07 15:55:23;;;;;;;;;;;;;;;;;;2017169;29;19911;-75
2023/06/07 15:56:44;;;;;;;;;;;;;;;;;;2014923;29;20384;-75
2023/06/07 15:58:05;;;;;;;;;;;;;;;;;;2019982;29;20387;-75
2023/06/07 15:59:25;;;;;;;;;;;;;;;;;;2024428;29;20280;-75
2023/06/07 16:00:47;;;;;;;;;;;;;;;;;;2015398;29;19918;-74
2023/06/07 16:02:08;;;;;;;;;;;;;;;;;;2020657;29;19916;-75
2023/06/07 16:03:29;;;;;;;;;;;;;;;;;;2022242;29;20371;-75
2023/06/07 16:04:49;;;;;;;;;;;;;;;;;;2024784;29;19927;-73
2023/06/07 16:06:10;;;;;;;;;;;;;;;;;;2024468;29;19915;-74
2023/06/07 16:07:31;;;;;;;;;;;;;;;;;;2016092;29;19960;-74
2023/06/07 16:08:52;;;;;;;;;;;;;;;;;;2021482;29;19911;-73
2023/06/07 16:10:13;;;;;;;;;;;;;;;;;;2026447;29;19915;-73
2023/06/07 16:11:33;;;;;;;;;;;;;;;;;;2021974;29;19907;-74
2023/06/07 16:12:55;;;;;;;;;;;;;;;;;;2024923;29;19950;-74
2023/06/07 16:14:16;;;;;;;;;;;;;;;;;;2026562;29;19919;-74
2023/06/07 16:15:37;;;;;;;;;;;;;;;;;;2026906;29;19908;-73
2023/06/07 16:16:57;;;;;;;;;;;;;;;;;;2026311;29;19911;-74
2023/06/07 16:18:18;;;;;;;;;;;;;;;;;;2019890;29;19922;-74
2023/06/07 16:19:39;;;;;;;;;;;;;;;;;;2023732;29;19916;-79
2023/06/07 16:21:00;;;;;;;;;;;;;;;;;;2028552;29;19911;-79
2023/06/07 16:22:20;;;;;;;;;;;;;;;;;;2026027;29;19915;-79
2023/06/07 16:23:41;;;;;;;;;;;;;;;;;;2017601;29;19919;-78
2023/06/07 16:25:02;;;;;;;;;;;;;;;;;;2021625;29;20293;-79
2023/06/07 16:26:23;;;;;;;;;;;;;;;;;;2014462;29;19920;-79
2023/06/07 16:27:43;;;;;;;;;;;;;;;;;;2022309;29;19911;-79
2023/06/07 16:29:04;;;;;;;;;;;;;;;;;;2015752;29;20394;-79
2023/06/07 16:30:26;;;;;;;;;;;;;;;;;;2024545;29;19915;-79
2023/06/07 16:31:47;;;;;;;;;;;;;;;;;;2025155;29;19911;-79
2023/06/07 16:33:07;;;;;;;;;;;;;;;;;;2015423;29;19912;-80
2023/06/07 16:34:29;;;;;;;;;;;;;;;;;;2018686;29;20336;-79
2023/06/07 16:35:50;;;;;;;;;;;;;;;;;;2019579;29;19912;-79
2023/06/07 16:37:11;;;;;;;;;;;;;;;;;;2016593;29;19911;-79
2023/06/07 16:38:31;;;;;;;;;;;;;;;;;;2018699;29;20295;-80
2023/06/07 16:39:52;;;;;;;;;;;;;;;;;;2022929;29;19911;-79
2023/06/07 16:41:13;;;;;;;;;;;;;;;;;;2023336;29;20351;-79
2023/06/07 16:42:33;;;;;;;;;;;;;;;;;;2023345;29;19919;-79
2023/06/07 16:43:54;;;;;;;;;;;;;;;;;;2022304;29;19938;-79
2023/06/07 16:51:54;;;;;;;;;;;;;;;;;;2013529;29;19935;-80
2023/06/07 17:00:12;;;;;;;;;;;;;;;;;;2013223;29;20576;-81
2023/06/07 17:01:35;;;;;;;;;;;;;;;;;;2012019;29;23633;-81
2023/06/07 17:03:01;;;;;;;;;;;;;;;;;;2015313;29;19916;-81
2023/06/07 17:04:31;;;;;;;;;;;;;;;;;;2006740;29;19959;-80
2023/06/07 17:18:38;;;;;;;;;;;;;;;;;;2022657;29;19927;-79
2023/06/07 17:20:09;;;;;;;;;;;;;;;;;;;;;
2023/06/07 17:38:46;;;;;;;;;;;;;;;;;;1999294;29;20210;-79
2023/06/07 17:40:07;;;;;;;;;;;;;;;;;;1995800;29;19924;-82
2023/06/07 17:41:27;;;;;;;;;;;;;;;;;;1999278;29;20316;-82
2023/06/07 17:42:49;;;;;;;;;;;;;;;;;;2000785;29;20381;-81
2023/06/07 17:44:44;;;;;;;;;;;;;;;;;;;;;
2023/06/07 17:51:10;;;;;;;;;;;;;;;;;;2008109;29;20357;-83
2023/06/07 17:52:30;;;;;;;;;;;;;;;;;;2017649;29;19912;-84
2023/06/07 17:53:57;;;;;;;;;;;;;;;;;;2015946;29;19908;-84
2023/06/07 17:57:06;;;;;;;;;;;;;;;;;;2017264;29;20590;-79
2023/06/07 18:07:22;;;;;;;;;;;;;;;;;;1995923;29;19948;-82
2023/06/07 18:27:14;;;;;;;;;;;;;;;;;;1986496;29;19969;-80
